Time;durP1;ratioP1;P1;durP2;ratioP2;P2;SDS_P1;SDS_P2;PMS_P1;PMS_P2;Temp;Humidity;BMP_temperature;BMP_pressure;BME280_temperature;BME280_humidity;BME280_pressure;Samples;Min_cycle;Max_cycle;Signal;HPM_P1;HPM_P2
2023/05/08 00:01:00;;;;;;;5.35;3.65;;;18.20;99.90;;;;;;5070344;28;20282;-70
2023/05/08 00:03:27;;;;;;;6.70;3.70;;;18.30;99.90;;;;;;5070134;28;20189;-71
2023/05/08 00:05:54;;;;;;;8.52;3.92;;;18.20;99.90;;;;;;5070183;28;20031;-70
2023/05/08 00:08:20;;;;;;;5.78;3.72;;;18.20;99.90;;;;;;5070105;28;20157;-70
2023/05/08 00:10:46;;;;;;;4.77;3.23;;;18.20;99.90;;;;;;5069858;28;20129;-71
2023/05/08 00:13:13;;;;;;;6.32;3.50;;;18.20;99.90;;;;;;5070206;28;20356;-70
2023/05/08 00:15:40;;;;;;;5.32;3.85;;;18.20;99.90;;;;;;5068527;28;20182;-70
2023/05/08 00:18:06;;;;;;;7.07;3.83;;;18.20;99.90;;;;;;5070091;28;20024;-69
2023/05/08 00:20:33;;;;;;;5.50;3.90;;;18.20;99.90;;;;;;5069682;28;20155;-70
2023/05/08 00:22:59;;;;;;;7.38;3.63;;;18.20;99.90;;;;;;5070106;28;20025;-70
2023/05/08 00:25:26;;;;;;;4.82;3.50;;;18.20;99.90;;;;;;5069958;28;20107;-70
2023/05/08 00:27:52;;;;;;;6.05;4.00;;;18.10;99.90;;;;;;5070117;28;20126;-71
2023/05/08 00:30:19;;;;;;;5.97;4.22;;;18.20;99.90;;;;;;5070147;28;20020;-70
2023/05/08 00:32:45;;;;;;;5.05;3.67;;;18.20;99.90;;;;;;5070116;28;20299;-70
2023/05/08 00:35:15;;;;;;;6.25;3.70;;;18.20;99.90;;;;;;5070143;28;20043;-70
2023/05/08 00:37:42;;;;;;;5.63;3.67;;;18.30;99.90;;;;;;5069939;28;20032;-71
2023/05/08 00:40:09;;;;;;;5.75;3.60;;;18.40;99.90;;;;;;5069546;28;20110;-71
2023/05/08 00:42:36;;;;;;;6.75;3.67;;;18.40;99.90;;;;;;5069840;28;20055;-71
2023/05/08 00:45:02;;;;;;;6.93;3.85;;;18.40;99.90;;;;;;5069883;28;20077;-71
2023/05/08 00:47:30;;;;;;;5.30;3.67;;;18.40;99.90;;;;;;5069834;28;20333;-69
2023/05/08 00:50:00;;;;;;;6.05;3.60;;;18.40;99.90;;;;;;5069471;28;20025;-71
2023/05/08 00:52:32;;;;;;;6.72;3.90;;;18.40;99.90;;;;;;5070014;28;20097;-70
2023/05/08 00:54:59;;;;;;;4.50;3.35;;;18.30;99.90;;;;;;5069504;28;20085;-70
2023/05/08 00:57:25;;;;;;;6.63;4.00;;;18.20;99.90;;;;;;5068281;28;20096;-71
2023/05/08 00:59:52;;;;;;;9.75;3.55;;;18.20;99.90;;;;;;5069358;28;20054;-71
2023/05/08 01:02:19;;;;;;;4.53;3.20;;;18.20;99.90;;;;;;5069437;28;20068;-70
2023/05/08 01:04:47;;;;;;;6.22;3.60;;;18.30;99.90;;;;;;5069483;28;20162;-70
2023/05/08 01:07:13;;;;;;;8.10;3.58;;;18.30;99.90;;;;;;5069303;28;20024;-70
2023/05/08 01:09:39;;;;;;;4.75;3.50;;;18.40;99.90;;;;;;5070853;28;20457;-70
2023/05/08 01:12:40;;;;;;;6.40;3.53;;;18.40;99.90;;;;;;5073401;28;20476;-71
2023/05/08 01:15:26;;;;;;;5.53;3.53;;;18.50;99.90;;;;;;5073497;28;20032;-70
2023/05/08 01:18:07;;;;;;;4.30;3.00;;;18.50;99.90;;;;;;5071944;28;20031;-70
2023/05/08 01:20:39;;;;;;;6.18;3.40;;;18.50;99.90;;;;;;5072884;28;20048;-71
2023/05/08 01:23:23;;;;;;;4.95;3.22;;;18.60;99.90;;;;;;5073320;28;20158;-69
2023/05/08 01:26:19;;;;;;;4.22;3.13;;;18.60;99.90;;;;;;5073227;28;20130;-70
2023/05/08 01:29:06;;;;;;;5.85;3.10;;;18.70;99.90;;;;;;5073369;28;20056;-72
2023/05/08 01:32:04;;;;;;;4.85;3.35;;;18.60;99.90;;;;;;5073393;28;20048;-70
2023/05/08 01:34:32;;;;;;;5.72;3.80;;;18.60;99.90;;;;;;5072858;28;20021;-71
2023/05/08 01:37:06;;;;;;;5.30;3.30;;;18.50;99.90;;;;;;5073058;28;20020;-68
2023/05/08 01:39:42;;;;;;;5.72;3.60;;;18.50;99.90;;;;;;5073005;28;20024;-71
2023/05/08 01:42:13;;;;;;;;;;;18.40;99.90;;;;;;5073001;28;20071;-71
2023/05/08 01:44:46;;;;;;;6.53;3.58;;;18.40;99.90;;;;;;5072813;28;19965;-72
2023/05/08 01:47:14;;;;;;;6.10;3.22;;;18.40;99.90;;;;;;5072871;28;20038;-70
2023/05/08 01:49:52;;;;;;;4.53;3.50;;;18.40;99.90;;;;;;5072572;28;20112;-70
2023/05/08 01:52:30;;;;;;;5.82;3.80;;;18.40;99.90;;;;;;5072917;28;20040;-71
2023/05/08 01:55:04;;;;;;;7.90;3.75;;;18.40;99.90;;;;;;5104731;28;20039;-71
2023/05/08 01:57:34;;;;;;;12.60;6.55;;;18.30;99.90;;;;;;5072708;28;20029;-70
2023/05/08 02:00:02;;;;;;;63.00;32.85;;;18.20;99.90;;;;;;5072667;28;20087;-70
2023/05/08 02:02:32;;;;;;;79.72;40.17;;;18.20;99.90;;;;;;5072280;28;20433;-70
2023/05/08 02:05:01;;;;;;;92.28;45.13;;;18.20;99.90;;;;;;5071843;28;20472;-71
2023/05/08 02:07:28;;;;;;;44.63;21.73;;;18.20;99.90;;;;;;5072180;28;20033;-72
2023/05/08 02:09:55;;;;;;;60.65;29.92;;;18.10;99.90;;;;;;5072381;28;20017;-71
2023/05/08 02:12:22;;;;;;;41.55;20.27;;;18.20;99.90;;;;;;5072671;28;20074;-71
2023/05/08 02:14:51;;;;;;;14.52;7.05;;;18.30;99.90;;;;;;5072358;28;20546;-71
2023/05/08 02:17:18;;;;;;;13.82;7.65;;;18.30;99.90;;;;;;5072249;28;20084;-71
2023/05/08 02:19:49;;;;;;;10.30;5.80;;;18.40;99.90;;;;;;5071650;28;20492;-70
2023/05/08 02:22:17;;;;;;;8.23;4.50;;;18.30;99.90;;;;;;5071055;28;20041;-70
2023/05/08 02:24:45;;;;;;;5.60;3.80;;;18.20;99.90;;;;;;5071862;28;20051;-70
2023/05/08 02:27:12;;;;;;;6.65;3.70;;;18.10;99.90;;;;;;5071767;28;20029;-71
2023/05/08 02:29:38;;;;;;;;;;;18.10;99.90;;;;;;5071943;28;20017;-69
2023/05/08 02:32:07;;;;;;;7.90;4.38;;;18.10;99.90;;;;;;5070409;28;19955;-70
2023/05/08 02:34:35;;;;;;;5.32;3.70;;;17.90;99.90;;;;;;5071525;28;20102;-70
2023/05/08 02:37:04;;;;;;;6.60;4.35;;;17.80;99.90;;;;;;5071724;28;20099;-69
2023/05/08 02:39:34;;;;;;;5.07;3.80;;;17.80;99.90;;;;;;5071415;28;20036;-70
2023/05/08 02:42:00;;;;;;;5.82;4.15;;;17.90;99.90;;;;;;5071286;28;20119;-70
2023/05/08 02:44:26;;;;;;;7.25;3.80;;;17.80;99.90;;;;;;5071663;28;20303;-71
2023/05/08 02:47:01;;;;;;;7.50;3.65;;;17.70;99.90;;;;;;5069953;28;20437;-71
2023/05/08 02:49:45;;;;;;;5.57;3.83;;;17.80;99.90;;;;;;5071641;28;20039;-70
2023/05/08 02:52:29;;;;;;;6.10;3.22;;;17.80;99.90;;;;;;5103552;28;20361;-71
2023/05/08 02:54:59;;;;;;;4.80;3.45;;;17.90;99.90;;;;;;5071245;28;20032;-70
2023/05/08 02:57:37;;;;;;;8.40;4.63;;;18.00;99.90;;;;;;5071653;28;20031;-70
2023/05/08 03:00:15;;;;;;;6.82;4.30;;;18.00;99.90;;;;;;5071779;28;20082;-70
2023/05/08 03:02:53;;;;;;;8.05;4.18;;;17.80;99.90;;;;;;5070231;28;20113;-70
2023/05/08 03:05:29;;;;;;;7.25;4.18;;;17.70;99.90;;;;;;5071686;28;20027;-71
2023/05/08 03:07:59;;;;;;;5.22;3.97;;;17.50;99.90;;;;;;5072497;28;20103;-71
2023/05/08 03:10:32;;;;;;;5.18;3.65;;;17.40;99.90;;;;;;5071910;28;20024;-71
2023/05/08 03:13:02;;;;;;;6.10;4.03;;;17.40;99.90;;;;;;5072134;28;20021;-70
2023/05/08 03:15:42;;;;;;;7.65;3.70;;;17.40;99.90;;;;;;5072012;28;20067;-70
2023/05/08 03:18:17;;;;;;;4.75;3.60;;;17.50;99.90;;;;;;5072064;28;20028;-69
2023/05/08 03:20:47;;;;;;;6.43;4.00;;;17.60;99.90;;;;;;5070427;28;20107;-71
2023/05/08 03:23:15;;;;;;;5.50;3.65;;;17.60;99.90;;;;;;5072055;28;20024;-70
2023/05/08 03:25:43;;;;;;;6.43;3.40;;;17.70;99.90;;;;;;5072354;28;20028;-71
2023/05/08 03:28:10;;;;;;;7.22;3.60;;;17.80;99.90;;;;;;5072789;28;20419;-71
2023/05/08 03:30:37;;;;;;;5.88;3.70;;;17.90;99.90;;;;;;5072537;28;20052;-70
2023/05/08 03:33:06;;;;;;;6.82;3.55;;;17.90;99.90;;;;;;5104655;28;20036;-71
2023/05/08 03:35:35;;;;;;;5.85;3.83;;;17.80;99.90;;;;;;5072610;28;20032;-70
2023/05/08 03:38:01;;;;;;;5.28;3.70;;;17.80;99.90;;;;;;5072239;28;20215;-71
2023/05/08 03:40:27;;;;;;;6.65;3.97;;;17.80;99.90;;;;;;5071876;28;20417;-70
2023/05/08 03:42:54;;;;;;;5.63;3.45;;;17.80;99.90;;;;;;5072252;28;20492;-70
2023/05/08 03:45:22;;;;;;;4.97;3.70;;;17.90;99.90;;;;;;5072209;28;20032;-71
2023/05/08 03:47:50;;;;;;;7.28;3.58;;;17.90;99.90;;;;;;5072246;28;20107;-71
2023/05/08 03:50:16;;;;;;;6.60;3.47;;;17.90;99.90;;;;;;5071899;28;20020;-71
2023/05/08 03:52:42;;;;;;;4.90;3.55;;;18.00;99.90;;;;;;5072196;28;20028;-67
2023/05/08 03:55:09;;;;;;;4.90;3.60;;;18.00;99.90;;;;;;5070368;28;20128;-71
2023/05/08 03:57:44;;;;;;;8.02;4.05;;;18.00;99.90;;;;;;5071730;28;20086;-70
2023/05/08 04:00:24;;;;;;;6.13;3.20;;;18.10;99.90;;;;;;5104168;28;20147;-70
2023/05/08 04:03:00;;;;;;;5.07;3.30;;;18.10;99.90;;;;;;5071964;28;20032;-70
2023/05/08 04:05:37;;;;;;;4.95;3.38;;;18.10;99.90;;;;;;5057363;28;20027;-70
2023/05/08 04:08:07;;;;;;;5.68;3.67;;;18.30;99.90;;;;;;5051931;28;20029;-71
2023/05/08 04:10:43;;;;;;;6.10;3.78;;;18.30;99.90;;;;;;5051712;28;20047;-71
2023/05/08 04:13:13;;;;;;;4.75;3.80;;;18.20;99.90;;;;;;5051946;28;20112;-71
2023/05/08 04:15:48;;;;;;;6.28;3.80;;;18.20;99.90;;;;;;5067631;28;20472;-70
2023/05/08 04:18:18;;;;;;;5.55;3.58;;;18.10;99.90;;;;;;5072970;28;20039;-71
2023/05/08 04:20:48;;;;;;;6.22;4.03;;;18.10;99.90;;;;;;5072605;28;20131;-68
2023/05/08 04:23:18;;;;;;;8.07;3.92;;;18.10;99.90;;;;;;5067679;28;20111;-71
2023/05/08 04:25:47;;;;;;;7.78;3.95;;;18.00;99.90;;;;;;5063242;28;20469;-70
2023/05/08 04:28:14;;;;;;;8.27;3.67;;;18.10;99.90;;;;;;5062317;28;20116;-71
2023/05/08 04:30:41;;;;;;;8.50;4.20;;;18.10;99.90;;;;;;5061035;28;20023;-70
2023/05/08 04:33:08;;;;;;;9.35;4.55;;;18.10;99.90;;;;;;5072185;28;20427;-70
2023/05/08 04:35:35;;;;;;;6.00;3.65;;;18.00;99.90;;;;;;5072986;28;20020;-71
2023/05/08 04:38:01;;;;;;;;;;;18.00;99.90;;;;;;5072947;28;20062;-70
2023/05/08 04:40:27;;;;;;;5.88;3.70;;;18.00;99.90;;;;;;5072383;28;19908;-70
2023/05/08 04:42:54;;;;;;;5.13;3.72;;;18.10;99.90;;;;;;5072787;28;20025;-71
2023/05/08 04:45:20;;;;;;;5.97;4.05;;;18.10;99.90;;;;;;5071655;28;20017;-71
2023/05/08 04:47:46;;;;;;;5.47;3.35;;;18.10;99.90;;;;;;5072076;28;20033;-69
2023/05/08 04:50:12;;;;;;;4.90;3.60;;;18.20;99.90;;;;;;5072069;28;20073;-70
2023/05/08 04:52:38;;;;;;;4.85;3.50;;;18.30;99.90;;;;;;5072313;28;20111;-71
2023/05/08 04:55:04;;;;;;;5.70;3.60;;;18.20;99.90;;;;;;5072168;28;20055;-71
2023/05/08 04:57:30;;;;;;;7.05;3.28;;;18.30;99.90;;;;;;5072045;28;20032;-70
2023/05/08 04:59:57;;;;;;;5.32;3.75;;;18.30;99.90;;;;;;5072067;28;20337;-71
2023/05/08 05:02:25;;;;;;;6.78;3.38;;;18.30;99.90;;;;;;5071859;28;20033;-68
2023/05/08 05:04:51;;;;;;;6.10;3.95;;;18.20;99.90;;;;;;5070346;28;20471;-71
2023/05/08 05:07:17;;;;;;;7.47;4.10;;;18.10;99.90;;;;;;5071675;28;20468;-70
2023/05/08 05:09:43;;;;;;;8.30;3.88;;;17.90;99.90;;;;;;5071864;28;20052;-71
2023/05/08 05:12:09;;;;;;;5.97;3.75;;;17.90;99.90;;;;;;5071211;28;20025;-70
2023/05/08 05:14:35;;;;;;;8.35;4.25;;;17.90;99.90;;;;;;5071274;28;20021;-71
2023/05/08 05:17:02;;;;;;;7.13;4.27;;;17.70;99.90;;;;;;5071959;28;20032;-71
2023/05/08 05:19:28;;;;;;;9.02;4.50;;;17.70;99.90;;;;;;5071431;28;20052;-71
2023/05/08 05:21:54;;;;;;;10.35;4.40;;;17.80;99.90;;;;;;5071612;28;20033;-71
2023/05/08 05:24:20;;;;;;;8.63;4.43;;;17.70;99.90;;;;;;5071873;28;20053;-71
2023/05/08 05:26:46;;;;;;;6.30;4.00;;;17.70;99.90;;;;;;5070206;28;20278;-71
2023/05/08 05:29:12;;;;;;;8.33;3.87;;;17.70;99.90;;;;;;5071486;28;20353;-71
2023/05/08 05:31:38;;;;;;;5.13;3.97;;;17.70;99.90;;;;;;5070492;28;20302;-71
2023/05/08 05:34:04;;;;;;;6.25;4.15;;;17.70;99.90;;;;;;5071025;28;20029;-71
2023/05/08 05:36:30;;;;;;;7.95;3.60;;;17.70;99.90;;;;;;5070693;28;20067;-69
2023/05/08 05:38:56;;;;;;;5.93;3.60;;;17.70;99.90;;;;;;5070475;28;20056;-70
2023/05/08 05:41:23;;;;;;;6.47;4.32;;;17.70;99.90;;;;;;5068740;28;20354;-70
2023/05/08 05:43:49;;;;;;;8.32;3.90;;;17.80;99.90;;;;;;5070385;28;20021;-71
2023/05/08 05:46:15;;;;;;;6.77;4.00;;;17.90;99.90;;;;;;5070853;28;20024;-68
2023/05/08 05:48:41;;;;;;;8.43;3.83;;;18.10;99.90;;;;;;5070167;28;20100;-71
2023/05/08 05:51:07;;;;;;;6.70;4.18;;;18.20;99.90;;;;;;5068562;28;20485;-73
2023/05/08 05:53:34;;;;;;;6.88;3.83;;;18.20;99.90;;;;;;5102672;28;20025;-72
2023/05/08 05:56:00;;;;;;;5.72;3.42;;;18.30;99.90;;;;;;5069915;28;20039;-71
2023/05/08 05:58:27;;;;;;;9.05;3.72;;;18.30;99.90;;;;;;5073409;28;20020;-73
2023/05/08 06:00:53;;;;;;;7.93;3.55;;;18.30;99.90;;;;;;5072912;28;20086;-74
2023/05/08 06:03:20;;;;;;;8.93;3.50;;;18.40;99.90;;;;;;5073645;28;20025;-73
2023/05/08 06:05:46;;;;;;;9.30;3.65;;;18.50;99.90;;;;;;5073602;28;20032;-74
2023/05/08 06:08:12;;;;;;;8.65;3.33;;;18.60;99.90;;;;;;5088698;28;20121;-72
2023/05/08 06:10:38;;;;;;;8.60;3.60;;;18.70;99.90;;;;;;5072918;28;20021;-72
2023/05/08 06:13:05;;;;;;;9.13;3.90;;;18.70;99.90;;;;;;5073591;28;20094;-72
2023/05/08 06:15:31;;;;;;;11.07;3.58;;;18.70;99.90;;;;;;5073351;28;20024;-74
2023/05/08 06:17:57;;;;;;;8.98;3.88;;;18.80;99.90;;;;;;5073869;28;20372;-73
2023/05/08 06:20:23;;;;;;;8.02;3.85;;;18.80;99.90;;;;;;5073981;28;20124;-71
2023/05/08 06:22:49;;;;;;;8.23;3.60;;;18.80;99.90;;;;;;5073493;28;20029;-72
2023/05/08 06:25:16;;;;;;;4.72;3.08;;;18.80;99.90;;;;;;5073504;28;20090;-73
2023/05/08 06:27:42;;;;;;;;;;;18.90;99.90;;;;;;5074263;28;20017;-73
2023/05/08 06:30:09;;;;;;;6.70;4.13;;;18.70;99.90;;;;;;5073336;28;19905;-73
2023/05/08 06:32:35;;;;;;;7.00;4.10;;;18.50;99.90;;;;;;5073033;28;20033;-73
2023/05/08 06:35:02;;;;;;;6.18;3.75;;;18.40;99.90;;;;;;5073185;28;20021;-72
2023/05/08 06:37:28;;;;;;;;;;;18.40;99.90;;;;;;5073400;28;20029;-72
2023/05/08 06:39:54;;;;;;;7.13;4.03;;;18.40;99.90;;;;;;5072106;28;19911;-73
2023/05/08 06:42:20;;;;;;;7.95;4.00;;;18.40;99.90;;;;;;5071379;28;20040;-69
2023/05/08 06:44:46;;;;;;;7.30;4.57;;;18.50;99.90;;;;;;5072066;28;20100;-72
2023/05/08 06:47:12;;;;;;;7.90;4.47;;;18.50;99.90;;;;;;5073121;28;20021;-72
2023/05/08 06:49:38;;;;;;;8.20;4.32;;;18.50;99.90;;;;;;5073029;28;20016;-71
2023/05/08 06:52:04;;;;;;;8.77;4.35;;;18.50;99.90;;;;;;5072715;28;20065;-72
2023/05/08 06:54:30;;;;;;;6.30;3.92;;;18.40;99.90;;;;;;5073070;28;20031;-74
2023/05/08 06:56:56;;;;;;;7.03;4.10;;;18.50;99.90;;;;;;5072509;28;20113;-72
2023/05/08 06:59:23;;;;;;;7.28;3.85;;;18.60;99.90;;;;;;5072965;28;20062;-72
2023/05/08 07:01:55;;;;;;;11.85;4.43;;;18.70;99.90;;;;;;5072520;28;20060;-71
2023/05/08 07:04:21;;;;;;;11.23;4.20;;;18.90;99.90;;;;;;5073046;28;20028;-73
2023/05/08 07:06:47;;;;;;;6.93;4.15;;;19.00;99.90;;;;;;5070664;28;20029;-71
2023/05/08 07:09:14;;;;;;;9.60;4.22;;;19.10;99.90;;;;;;5072852;28;20020;-72
2023/05/08 07:11:40;;;;;;;9.18;4.85;;;19.10;99.90;;;;;;5070767;28;20020;-73
2023/05/08 07:14:06;;;;;;;11.90;4.32;;;19.10;99.90;;;;;;5071000;28;20028;-72
2023/05/08 07:16:32;;;;;;;7.50;4.72;;;19.20;99.90;;;;;;5072570;28;20020;-72
2023/05/08 07:18:58;;;;;;;8.88;4.55;;;19.20;99.90;;;;;;5070408;28;20492;-71
2023/05/08 07:21:25;;;;;;;8.80;4.10;;;19.20;99.90;;;;;;5078222;28;20039;-73
2023/05/08 07:23:52;;;;;;;7.72;3.88;;;19.20;99.90;;;;;;5091640;28;20028;-73
2023/05/08 07:26:18;;;;;;;6.07;4.15;;;19.20;99.90;;;;;;5092808;28;20376;-73
2023/05/08 07:28:44;;;;;;;12.88;4.30;;;19.20;99.90;;;;;;5075108;28;20033;-73
2023/05/08 07:31:14;;;;;;;7.43;3.70;;;19.20;99.90;;;;;;5072175;28;20016;-73
2023/05/08 07:33:40;;;;;;;10.10;3.78;;;19.20;99.90;;;;;;5072086;28;20032;-73
2023/05/08 07:36:06;;;;;;;7.90;4.05;;;19.10;99.90;;;;;;5071626;28;20033;-74
2023/05/08 07:38:32;;;;;;;7.40;4.13;;;19.10;99.90;;;;;;5071056;28;20028;-72
2023/05/08 07:41:00;;;;;;;10.00;4.53;;;18.70;99.90;;;;;;5084445;28;20028;-72
2023/05/08 07:43:28;;;;;;;11.57;4.30;;;18.40;99.90;;;;;;5092020;28;20032;-72
2023/05/08 07:45:54;;;;;;;12.32;4.25;;;18.10;99.90;;;;;;5092008;28;20116;-71
2023/05/08 07:48:20;;;;;;;11.35;4.30;;;17.80;99.90;;;;;;5090772;28;20028;-73
2023/05/08 07:50:49;;;;;;;9.05;4.55;;;17.50;99.90;;;;;;5077122;28;20310;-72
2023/05/08 07:53:15;;;;;;;5.80;3.55;;;17.10;99.90;;;;;;5071095;28;20476;-72
2023/05/08 07:55:42;;;;;;;6.22;3.80;;;17.00;99.90;;;;;;5072385;28;20028;-72
2023/05/08 07:58:09;;;;;;;8.18;3.22;;;17.00;99.90;;;;;;5091343;28;20043;-70
2023/05/08 08:00:35;;;;;;;6.38;3.03;;;17.00;99.90;;;;;;5091438;28;20334;-70
2023/05/08 08:03:02;;;;;;;8.25;4.40;;;16.90;99.90;;;;;;5091755;28;20043;-71
2023/05/08 08:05:28;;;;;;;8.13;4.53;;;16.90;99.90;;;;;;5072890;28;20394;-71
2023/05/08 08:07:54;;;;;;;6.80;4.38;;;16.90;99.90;;;;;;5070592;28;20128;-73
2023/05/08 08:10:20;;;;;;;7.87;4.70;;;16.90;99.90;;;;;;5070318;28;20021;-71
2023/05/08 08:12:46;;;;;;;6.97;4.13;;;17.00;99.90;;;;;;5070889;28;20255;-70
2023/05/08 08:15:12;;;;;;;5.57;3.47;;;17.10;99.90;;;;;;5068893;28;20044;-72
2023/05/08 08:17:38;;;;;;;6.35;3.65;;;17.10;99.90;;;;;;5070518;28;20021;-73
2023/05/08 08:20:05;;;;;;;5.10;3.80;;;17.30;99.90;;;;;;5070194;28;20044;-71
2023/05/08 08:22:31;;;;;;;5.47;3.60;;;17.40;99.90;;;;;;5071448;28;20748;-71
2023/05/08 08:24:57;;;;;;;5.68;3.60;;;17.50;99.90;;;;;;5070940;28;20040;-71
2023/05/08 08:27:23;;;;;;;5.95;4.28;;;17.50;99.90;;;;;;5071086;28;20062;-71
2023/05/08 08:29:50;;;;;;;6.97;3.88;;;17.40;99.90;;;;;;5071385;28;20017;-71
2023/05/08 08:32:16;;;;;;;5.72;4.10;;;17.40;99.90;;;;;;5070688;28;20020;-72
2023/05/08 08:34:42;;;;;;;6.65;3.50;;;17.30;99.90;;;;;;5071085;28;20020;-71
2023/05/08 08:37:08;;;;;;;6.30;3.75;;;17.40;99.90;;;;;;5070528;28;20329;-72
2023/05/08 08:39:34;;;;;;;5.45;3.83;;;17.30;99.90;;;;;;5070908;28;20498;-72
2023/05/08 08:42:01;;;;;;;6.93;4.22;;;17.30;99.90;;;;;;5070845;28;20036;-78
2023/05/08 08:44:27;;;;;;;5.80;4.40;;;17.50;99.90;;;;;;5069499;28;20027;-79
2023/05/08 08:46:54;;;;;;;6.57;3.42;;;17.50;99.90;;;;;;5069630;28;20028;-78
2023/05/08 08:49:29;;;;;;;6.40;4.07;;;17.50;99.90;;;;;;5070581;28;20024;-78
2023/05/08 08:52:00;;;;;;;7.72;4.10;;;17.50;99.90;;;;;;5070632;28;20059;-79
2023/05/08 08:54:30;;;;;;;8.38;4.30;;;17.40;99.90;;;;;;5071023;28;20028;-74
2023/05/08 08:56:58;;;;;;;9.43;4.75;;;17.60;99.90;;;;;;5070592;28;20039;-74
2023/05/08 08:59:26;;;;;;;13.73;5.82;;;17.50;99.90;;;;;;5070833;28;20025;-73
2023/05/08 09:02:05;;;;;;;11.27;5.45;;;17.50;99.90;;;;;;5071147;28;20059;-72
2023/05/08 09:04:31;;;;;;;8.95;4.22;;;17.50;99.90;;;;;;5070696;28;20374;-72
2023/05/08 09:06:58;;;;;;;6.37;3.73;;;17.70;99.90;;;;;;5070279;28;20392;-72
2023/05/08 09:09:24;;;;;;;8.75;4.30;;;17.70;99.90;;;;;;5068629;28;20352;-73
2023/05/08 09:11:52;;;;;;;6.22;3.92;;;17.80;99.90;;;;;;5069938;28;20036;-72
2023/05/08 09:14:18;;;;;;;5.00;3.70;;;17.90;99.90;;;;;;5070407;28;20020;-73
2023/05/08 09:16:44;;;;;;;5.13;3.65;;;18.00;99.90;;;;;;5070549;28;20108;-73
2023/05/08 09:19:14;;;;;;;7.07;3.67;;;18.00;99.90;;;;;;5068797;28;20114;-73
2023/05/08 09:21:41;;;;;;;6.07;3.53;;;18.00;99.90;;;;;;5070368;28;20040;-73
2023/05/08 09:24:07;;;;;;;5.72;4.03;;;18.00;99.90;;;;;;5102559;28;20047;-72
2023/05/08 09:26:37;;;;;;;7.20;3.90;;;17.90;99.90;;;;;;5070368;28;20028;-71
2023/05/08 09:29:18;;;;;;;6.90;4.05;;;17.90;99.90;;;;;;5102617;28;20024;-71
2023/05/08 09:31:49;;;;;;;6.45;3.75;;;17.80;99.90;;;;;;5105804;28;20017;-73
2023/05/08 09:34:32;;;;;;;7.43;3.92;;;17.80;99.90;;;;;;5074014;28;20539;-72
2023/05/08 09:37:03;;;;;;;8.25;3.60;;;17.90;99.90;;;;;;5073961;28;20021;-72
2023/05/08 09:39:29;;;;;;;6.88;3.72;;;17.90;99.90;;;;;;5073899;28;20044;-74
2023/05/08 09:41:57;;;;;;;7.07;3.90;;;17.90;99.90;;;;;;5073920;28;20388;-73
2023/05/08 09:44:24;;;;;;;7.70;3.70;;;17.90;99.90;;;;;;5074251;28;20028;-73
2023/05/08 09:46:50;;;;;;;6.20;3.92;;;17.90;99.90;;;;;;5074507;28;20357;-74
2023/05/08 09:49:17;;;;;;;6.13;3.57;;;17.90;99.90;;;;;;5074120;28;20467;-74
2023/05/08 09:51:53;;;;;;;6.22;3.92;;;17.90;99.90;;;;;;5074257;28;20056;-74
2023/05/08 09:54:19;;;;;;;6.78;4.22;;;17.90;99.90;;;;;;5072679;28;20032;-73
2023/05/08 09:56:45;;;;;;;7.50;4.30;;;18.00;99.90;;;;;;5073818;28;20134;-74
2023/05/08 09:59:29;;;;;;;7.80;4.32;;;18.10;99.90;;;;;;5073910;28;20036;-74
2023/05/08 10:01:56;;;;;;;8.35;4.70;;;18.10;99.90;;;;;;5073368;28;20112;-72
2023/05/08 10:04:36;;;;;;;9.88;4.70;;;18.00;99.90;;;;;;5073794;28;20051;-74
2023/05/08 10:07:03;;;;;;;7.10;4.18;;;18.00;99.90;;;;;;5074161;28;20052;-72
2023/05/08 10:09:29;;;;;;;10.55;4.50;;;18.10;99.90;;;;;;5073711;28;20036;-75
2023/05/08 10:11:55;;;;;;;7.90;4.70;;;18.10;99.90;;;;;;5073248;28;20127;-73
2023/05/08 10:14:22;;;;;;;9.15;4.35;;;18.20;99.90;;;;;;5073117;28;20175;-74
2023/05/08 10:16:52;;;;;;;;;;;18.30;99.90;;;;;;5073536;28;20079;-73
2023/05/08 10:19:21;;;;;;;4.82;2.85;;;18.40;99.90;;;;;;5072827;28;20222;-73
2023/05/08 10:21:51;;;;;;;4.80;2.90;;;18.50;99.90;;;;;;5072846;28;20480;-74
2023/05/08 10:24:20;;;;;;;6.75;3.80;;;18.50;99.90;;;;;;5064939;22;20525;-73
2023/05/08 10:27:13;;;;;;;8.40;4.25;;;18.50;99.90;;;;;;5012205;28;20366;-73
2023/05/08 10:30:02;;;;;;;7.55;4.05;;;18.50;99.90;;;;;;5014112;28;20552;-73
2023/05/08 10:32:37;;;;;;;5.43;3.70;;;18.40;99.90;;;;;;5013857;28;20030;-74
2023/05/08 10:35:06;;;;;;;5.20;3.30;;;18.40;99.90;;;;;;5013075;28;20026;-72
2023/05/08 10:37:36;;;;;;;6.53;2.60;;;18.60;99.90;;;;;;5013275;28;20026;-72
2023/05/08 10:40:04;;;;;;;6.32;3.75;;;18.60;99.90;;;;;;5012178;28;20390;-72
2023/05/08 10:42:34;;;;;;;8.35;3.78;;;18.50;99.90;;;;;;5010581;28;20447;-73
2023/05/08 10:45:02;;;;;;;5.50;3.55;;;18.60;99.90;;;;;;5013160;28;20029;-73
2023/05/08 10:47:52;;;;;;;4.53;3.20;;;18.60;99.90;;;;;;5011433;28;20389;-74
2023/05/08 10:50:30;;;;;;;6.18;3.10;;;18.70;99.90;;;;;;5012656;28;20056;-73
2023/05/08 10:53:13;;;;;;;4.90;3.10;;;18.60;99.90;;;;;;5012760;28;20060;-73
2023/05/08 10:55:43;;;;;;;5.40;3.20;;;18.70;99.90;;;;;;5012380;28;20145;-74
2023/05/08 10:58:13;;;;;;;5.78;3.20;;;18.70;99.90;;;;;;5012529;28;20464;-73
2023/05/08 11:00:51;;;;;;;5.72;3.40;;;18.80;99.90;;;;;;5012532;28;20383;-73
2023/05/08 11:03:18;;;;;;;4.63;2.97;;;18.80;99.90;;;;;;5012265;28;20426;-72
2023/05/08 11:05:46;;;;;;;4.68;2.78;;;18.70;99.90;;;;;;5012179;28;20347;-73
2023/05/08 11:08:23;;;;;;;36.88;3.40;;;18.80;99.90;;;;;;5012397;28;20034;-72
2023/05/08 11:11:18;;;;;;;4.93;3.20;;;18.90;99.90;;;;;;5011831;28;20061;-72
2023/05/08 11:13:52;;;;;;;4.82;2.55;;;18.80;99.90;;;;;;5012199;28;20029;-74
2023/05/08 11:16:53;;;;;;;8.05;2.83;;;18.70;99.90;;;;;;5012173;28;20029;-73
2023/05/08 11:19:26;;;;;;;4.22;3.13;;;18.60;99.90;;;;;;5012957;28;20431;-73
2023/05/08 11:22:22;;;;;;;5.32;2.67;;;18.50;99.90;;;;;;5011268;28;20073;-73
2023/05/08 11:24:52;;;;;;;5.18;3.47;;;18.50;99.90;;;;;;5027195;28;20050;-74
2023/05/08 11:27:32;;;;;;;3.85;2.75;;;18.60;99.90;;;;;;5010824;28;20467;-74
2023/05/08 11:30:17;;;;;;;5.25;3.20;;;18.50;99.90;;;;;;5012221;28;20501;-72
2023/05/08 11:33:05;;;;;;;6.35;3.20;;;18.50;99.90;;;;;;5012829;28;20095;-74
2023/05/08 11:35:51;;;;;;;4.90;2.63;;;18.40;99.90;;;;;;5029837;28;20040;-73
2023/05/08 11:38:26;;;;;;;6.15;3.30;;;18.40;99.90;;;;;;5013126;28;20415;-74
2023/05/08 11:41:20;;;;;;;7.18;3.40;;;18.50;99.90;;;;;;5012552;28;20026;-75
2023/05/08 11:43:49;;;;;;;8.80;3.30;;;18.50;99.90;;;;;;5012465;28;20113;-74
2023/05/08 11:46:20;;;;;;;5.93;3.22;;;18.60;99.90;;;;;;5012845;28;20106;-73
2023/05/08 11:48:47;;;;;;;7.57;4.13;;;18.60;99.90;;;;;;5012818;28;20118;-73
2023/05/08 11:51:18;;;;;;;7.97;3.45;;;18.60;99.90;;;;;;5012213;28;20048;-73
2023/05/08 11:53:44;;;;;;;6.35;3.60;;;18.70;99.90;;;;;;5010944;28;20069;-73
2023/05/08 11:56:10;;;;;;;7.28;3.47;;;18.80;99.90;;;;;;5012202;28;20063;-74
2023/05/08 11:58:36;;;;;;;7.05;3.33;;;18.60;99.90;;;;;;5012570;28;20030;-74
2023/05/08 12:01:03;;;;;;;9.20;3.60;;;18.30;99.90;;;;;;5012172;28;20073;-73
2023/05/08 12:03:29;;;;;;;10.63;3.83;;;18.20;99.90;;;;;;5012594;28;20084;-73
2023/05/08 12:05:57;;;;;;;7.70;3.70;;;18.10;99.90;;;;;;5012348;28;20022;-73
2023/05/08 12:08:23;;;;;;;5.90;3.70;;;18.20;99.90;;;;;;5012687;28;20064;-74
2023/05/08 12:10:55;;;;;;;6.35;3.35;;;18.30;99.90;;;;;;5012493;28;20034;-73
2023/05/08 12:13:23;;;;;;;8.27;3.47;;;18.40;99.90;;;;;;5012785;28;20030;-75
2023/05/08 12:15:55;;;;;;;7.10;3.70;;;18.20;99.90;;;;;;5012900;28;20030;-70
2023/05/08 12:18:23;;;;;;;5.95;3.30;;;18.20;99.90;;;;;;5013005;28;20136;-71
2023/05/08 12:20:55;;;;;;;10.13;3.60;;;18.10;99.90;;;;;;5012332;28;20124;-72
2023/05/08 12:23:31;;;;;;;9.90;3.25;;;18.10;99.90;;;;;;5012826;28;20050;-73
2023/05/08 12:25:59;;;;;;;6.53;3.97;;;18.10;99.90;;;;;;5012356;28;20147;-74
2023/05/08 12:28:26;;;;;;;9.98;3.70;;;18.10;99.90;;;;;;5013309;28;20370;-74
2023/05/08 12:30:52;;;;;;;9.70;3.40;;;18.20;99.90;;;;;;5012724;28;20026;-73
2023/05/08 12:33:19;;;;;;;8.35;3.83;;;18.50;99.90;;;;;;5012578;28;20022;-72
2023/05/08 12:35:46;;;;;;;7.13;3.20;;;18.70;99.90;;;;;;5012818;28;20030;-73
2023/05/08 12:38:12;;;;;;;7.30;2.20;;;19.10;99.90;;;;;;5012312;28;20034;-74
2023/05/08 12:40:43;;;;;;;5.65;2.50;;;19.20;99.90;;;;;;5012035;28;20076;-73
2023/05/08 12:43:10;;;;;;;4.68;2.40;;;19.30;99.90;;;;;;5012198;28;20042;-72
2023/05/08 12:45:38;;;;;;;6.82;2.95;;;19.40;99.90;;;;;;5012385;28;20098;-74
2023/05/08 12:48:07;;;;;;;7.40;2.65;;;19.30;99.90;;;;;;5010609;28;20034;-75
2023/05/08 12:50:35;;;;;;;10.02;3.45;;;19.40;99.90;;;;;;5010481;28;20099;-75
2023/05/08 12:53:12;;;;;;;10.98;3.50;;;19.40;99.90;;;;;;5010705;28;20370;-72
2023/05/08 12:55:39;;;;;;;7.30;3.50;;;19.60;99.90;;;;;;5011972;28;20030;-73
2023/05/08 12:58:12;;;;;;;12.95;3.72;;;19.50;99.90;;;;;;5012113;28;20104;-72
2023/05/08 13:00:46;;;;;;;9.82;3.30;;;19.40;99.90;;;;;;5012300;28;20340;-73